Terminal Aerodrome Forecast
Issued by NWS

Home | Current Version | Previous Version | Text Only | Print | Product List | Glossary On
Versions: 1 2 3 4 5 6 7 8 9 10 11 12 13 14 15 16 17 18 19 20 21 22 23 24 25 26 27 28 29 30 31 32 33 34 35 36 37 38 39 40 41 42 43 44 45 46 47 48 49 50
000
FTUS45 KBOU 270524
TAFBJC
TAF
KBJC 270524Z 2706/2806 03010KT P6SM SCT012 OVC025
      TEMPO 2706/2708 4SM -SHRA OVC012
     FM270900 31007KT P6SM SCT040 BKN080
     FM271500 33008KT P6SM SCT040 SCT080
     FM271900 01014G24KT P6SM VCSH SCT045 BKN100
     FM280200 04006KT P6SM VCSH SCT015 BKN030=

USA.gov is the U.S. government's official web portal to all federal, state and local government web resources and services.